Terminal Aerodrome Forecast
Issued by NWS

Home | Current Version | Previous Version | Text Only | Print | Product List | Glossary On
Versions: 1 2 3 4 5 6 7 8 9 10 11 12 13 14 15 16 17
167
FTUS42 TJSJ 291120
TAFISX
TAF
TISX 291120Z 2912/3012 11008KT P6SM VCSH FEW025 SCT050
     FM291330 13012KT P6SM VCSH SCT025 SCT035 BKN050
     FM292300 11006KT P6SM FEW025 SCT100=

USA.gov is the U.S. government's official web portal to all federal, state and local government web resources and services.